Terminal Aerodrome Forecast
Issued by NWS

Home | Current Version | Previous Version | Text Only | Print | Product List | Glossary On
Versions: 1 2 3 4 5 6 7 8 9 10 11 12 13 14 15 16 17 18 19 20 21
000
FTUS42 KTBW 272300
TAFPIE
TAF
KPIE 272332Z 2800/2824 33016G26KT P6SM SKC
     FM280600 01015G22KT P6SM SKC
     FM281600 01008KT P6SM SKC=

USA.gov is the U.S. government's official web portal to all federal, state and local government web resources and services.